LGEL weather

Elefsis Airport
Elefsina, Attica, Greece

Public forecast

Using degrees Celsius for public forecast. Weather courtesy of forecast.io.

METAR (pilot weather report)

Retrieved 2018/09/19 16:20 UTC (2 minutes ago):

LGEL 191620Z 35012KT CAVOK 25/13 Q1017

TAF (pilot weather forecast)

Retrieved 2018/09/19 12:12 UTC (4 hours ago):

TAF LGEL 191100Z 1912/2012 34013G23KT 9999 FEW025 BECMG 1916/1918 33010KT